createdAt,value
2019-03-01T00:02:15.009Z,53.75
2019-03-01T00:04:52.392Z,54.05
2019-03-01T00:07:55.808Z,53.92
2019-03-01T00:10:36.227Z,55.22
2019-03-01T00:13:28.896Z,55.28
2019-03-01T00:16:08.830Z,55.74
2019-03-01T00:18:43.024Z,55.59
2019-03-01T00:21:29.560Z,54.70
2019-03-01T00:24:03.936Z,53.86
2019-03-01T00:26:53.338Z,53.55
2019-03-01T00:29:39.947Z,53.92
2019-03-01T00:32:17.289Z,54.64
2019-03-01T00:35:04.098Z,55.82
2019-03-01T00:37:44.731Z,55.50
2019-03-01T00:40:28.392Z,55.59
2019-03-01T00:43:18.039Z,55.69
2019-03-01T00:45:46.319Z,55.70
2019-03-01T00:48:14.626Z,55.77
2019-03-01T00:50:42.892Z,55.15
2019-03-01T00:53:11.156Z,54.48
2019-03-01T00:55:39.452Z,54.42
2019-03-01T00:58:07.711Z,55.09
2019-03-01T01:00:45.565Z,55.07
2019-03-01T01:03:13.825Z,55.16
2019-03-01T01:05:42.110Z,56.22
2019-03-01T01:08:10.425Z,56.24
2019-03-01T01:10:38.689Z,56.54
2019-03-01T01:13:06.978Z,56.41
2019-03-01T01:15:35.241Z,56.33
2019-03-01T01:18:03.510Z,55.54
2019-03-01T01:20:31.815Z,55.95
2019-03-01T01:23:00.073Z,55.61
2019-03-01T01:25:28.331Z,55.87
2019-03-01T01:27:56.606Z,56.36
2019-03-01T01:30:24.892Z,56.71
2019-03-01T01:32:53.151Z,55.85
2019-03-01T01:35:21.426Z,55.87
2019-03-01T01:37:49.703Z,56.88
2019-03-01T01:40:18.001Z,56.07
2019-03-01T01:42:46.263Z,56.46
2019-03-01T01:45:14.523Z,56.71
2019-03-01T01:47:42.795Z,57.08
2019-03-01T01:50:11.051Z,57.34
2019-03-01T01:52:39.374Z,57.40
2019-03-01T01:55:07.627Z,58.01
2019-03-01T01:57:35.893Z,57.74
2019-03-01T02:00:06.977Z,58.46
2019-03-01T02:02:35.236Z,58.00
2019-03-01T02:05:03.524Z,57.82
2019-03-01T02:07:31.792Z,58.39
2019-03-01T02:10:00.182Z,58.75
2019-03-01T02:12:28.616Z,57.65
2019-03-01T02:14:56.918Z,57.03
2019-03-01T02:17:25.175Z,56.96
2019-03-01T02:19:53.438Z,56.80
2019-03-01T02:22:21.763Z,56.69
2019-03-01T02:24:50.036Z,56.98
2019-03-01T02:27:20.894Z,58.16
2019-03-01T02:29:49.188Z,59.06
2019-03-01T02:32:20.716Z,58.04
2019-03-01T02:34:48.983Z,58.43
2019-03-01T02:37:17.242Z,58.79
2019-03-01T02:39:45.510Z,59.86
2019-03-01T02:42:13.763Z,59.54
2019-03-01T02:44:42.056Z,60.24
2019-03-01T02:47:10.315Z,59.86
2019-03-01T02:49:38.587Z,59.47
2019-03-01T02:52:06.878Z,59.65
2019-03-01T02:54:35.133Z,59.68
2019-03-01T02:57:03.429Z,59.62
2019-03-01T02:59:31.691Z,60.03
2019-03-01T03:01:59.958Z,59.64
2019-03-01T03:04:28.225Z,59.87
2019-03-01T03:07:03.595Z,59.05
2019-03-01T03:09:31.851Z,59.03
2019-03-01T03:12:00.145Z,59.11
2019-03-01T03:14:28.481Z,58.74
2019-03-01T03:16:56.789Z,58.54
2019-03-01T03:19:25.047Z,59.44
2019-03-01T03:21:53.301Z,59.19
2019-03-01T03:24:21.572Z,59.80
2019-03-01T03:26:49.851Z,60.38
2019-03-01T03:29:18.117Z,60.16
2019-03-01T03:31:46.392Z,60.75
2019-03-01T03:34:14.721Z,60.92
2019-03-01T03:36:43.013Z,61.42
2019-03-01T03:39:11.975Z,61.64
2019-03-01T03:41:40.220Z,62.47
2019-03-01T03:44:08.511Z,61.79
2019-03-01T03:46:36.812Z,61.80
2019-03-01T03:49:05.070Z,61.77
2019-03-01T03:51:33.347Z,61.38
2019-03-01T03:54:01.631Z,61.55
2019-03-01T03:56:29.889Z,61.01
2019-03-01T03:58:58.168Z,61.18
2019-03-01T04:01:26.431Z,61.96
2019-03-01T04:03:54.702Z,62.54
2019-03-01T04:06:22.993Z,62.66
2019-03-01T04:08:51.249Z,61.73
2019-03-01T04:11:19.594Z,61.73
2019-03-01T04:13:47.887Z,61.41
2019-03-01T04:16:16.149Z,60.65
2019-03-01T04:18:44.446Z,61.55
2019-03-01T04:21:12.734Z,62.58
2019-03-01T04:23:41.018Z,62.99
2019-03-01T04:26:09.278Z,61.98
2019-03-01T04:28:37.551Z,61.91
2019-03-01T04:31:05.830Z,61.33
2019-03-01T04:33:34.157Z,61.12
2019-03-01T04:36:02.429Z,61.14
2019-03-01T04:38:30.716Z,60.97
2019-03-01T04:40:58.974Z,61.10
2019-03-01T04:43:27.275Z,61.17
2019-03-01T04:45:55.531Z,61.07
2019-03-01T04:48:23.807Z,60.97
2019-03-01T04:50:52.065Z,61.14
2019-03-01T04:53:20.331Z,60.81
2019-03-01T04:55:48.597Z,61.57
2019-03-01T04:58:16.863Z,61.40
2019-03-01T05:00:45.132Z,61.02
2019-03-01T05:03:13.400Z,61.30
2019-03-01T05:05:41.689Z,62.41
2019-03-01T05:08:09.985Z,61.90
2019-03-01T05:10:38.246Z,61.24
2019-03-01T05:13:06.524Z,61.81
2019-03-01T05:15:34.782Z,61.93
2019-03-01T05:18:03.159Z,62.59
2019-03-01T05:20:31.416Z,63.66
2019-03-01T05:22:59.683Z,62.86
2019-03-01T05:25:27.953Z,62.16
2019-03-01T05:27:56.219Z,62.20
2019-03-01T05:30:24.509Z,61.95
2019-03-01T05:32:52.773Z,61.68
2019-03-01T05:35:21.086Z,62.93
2019-03-01T05:37:51.330Z,62.59
2019-03-01T05:40:19.652Z,61.79
2019-03-01T05:42:47.933Z,61.61
2019-03-01T05:45:21.694Z,63.31
2019-03-01T05:47:49.992Z,62.30
2019-03-01T05:50:18.251Z,61.49
2019-03-01T05:52:46.544Z,60.60
2019-03-01T05:55:14.813Z,61.22
2019-03-01T05:58:21.520Z,61.39
2019-03-01T06:00:51.107Z,61.79
2019-03-01T06:03:42.520Z,64.15
2019-03-01T06:06:14.042Z,64.43
2019-03-01T06:08:51.261Z,65.37
2019-03-01T06:11:37.932Z,64.26
2019-03-01T06:14:12.430Z,63.40
2019-03-01T06:17:00.465Z,63.57
2019-03-01T06:19:32.026Z,63.54
2019-03-01T06:22:12.270Z,64.23
2019-03-01T06:24:52.908Z,63.41
2019-03-01T06:27:45.421Z,64.45
2019-03-01T06:30:34.919Z,64.47
2019-03-01T06:33:35.261Z,63.95
2019-03-01T06:36:15.584Z,63.89
2019-03-01T06:39:03.669Z,63.54
2019-03-01T06:41:40.699Z,62.88
2019-03-01T06:44:33.165Z,63.44
2019-03-01T06:47:21.025Z,63.29
2019-03-01T06:50:02.944Z,63.02
2019-03-01T06:52:31.228Z,62.39
2019-03-01T06:54:59.526Z,62.49
2019-03-01T06:57:27.791Z,61.35
2019-03-01T06:59:56.089Z,61.66
2019-03-01T07:02:26.002Z,61.04
2019-03-01T07:04:54.265Z,61.22
2019-03-01T07:07:22.539Z,62.21
2019-03-01T07:09:50.833Z,61.90
2019-03-01T07:12:19.099Z,61.88
2019-03-01T07:14:47.391Z,62.27
2019-03-01T07:17:15.656Z,61.43
2019-03-01T07:19:43.956Z,61.24
2019-03-01T07:22:12.255Z,61.58
2019-03-01T07:24:40.539Z,60.98
2019-03-01T07:27:08.790Z,60.74
2019-03-01T07:29:37.058Z,60.69
2019-03-01T07:32:05.354Z,60.77
2019-03-01T07:34:33.624Z,61.22
2019-03-01T07:37:01.709Z,61.40
2019-03-01T07:39:29.997Z,61.23
2019-03-01T07:41:58.276Z,61.07
2019-03-01T07:44:26.561Z,60.38
2019-03-01T07:46:54.823Z,61.69
2019-03-01T07:49:23.117Z,61.72
2019-03-01T07:51:51.418Z,61.25
2019-03-01T07:54:22.190Z,60.47
2019-03-01T07:56:49.719Z,60.60
2019-03-01T07:59:17.958Z,61.06
2019-03-01T08:01:46.234Z,62.29
2019-03-01T08:04:14.620Z,63.42
2019-03-01T08:06:45.618Z,63.84
2019-03-01T08:09:13.782Z,62.51
2019-03-01T08:11:42.035Z,62.42
2019-03-01T08:14:10.418Z,61.88
2019-03-01T08:16:38.679Z,61.73
2019-03-01T08:19:06.971Z,61.09
2019-03-01T08:21:35.231Z,61.32
2019-03-01T08:24:03.529Z,61.85
2019-03-01T08:26:34.052Z,62.26
2019-03-01T08:29:01.783Z,62.34
2019-03-01T08:31:30.062Z,61.40
2019-03-01T08:33:58.447Z,61.26
2019-03-01T08:36:26.739Z,60.75
2019-03-01T08:38:55.042Z,61.15
2019-03-01T08:41:25.027Z,61.03
2019-03-01T08:43:53.293Z,61.70
2019-03-01T08:46:21.570Z,61.56
2019-03-01T08:48:49.885Z,61.21
2019-03-01T08:51:18.435Z,61.10
2019-03-01T08:53:48.260Z,60.54
2019-03-01T08:56:25.572Z,59.67
2019-03-01T08:58:46.705Z,59.21
2019-03-01T09:01:20.968Z,59.70
2019-03-01T09:03:55.365Z,60.49
2019-03-01T09:06:23.657Z,59.67
2019-03-01T09:08:51.940Z,59.82
2019-03-01T09:11:20.264Z,59.65
2019-03-01T09:13:48.903Z,59.63
2019-03-01T09:16:17.242Z,59.45
2019-03-01T09:18:46.658Z,59.60
2019-03-01T09:21:15.543Z,59.67
2019-03-01T09:23:43.820Z,59.84
2019-03-01T09:26:12.098Z,60.53
2019-03-01T09:28:40.375Z,60.29
2019-03-01T09:31:08.632Z,60.52
2019-03-01T09:33:36.919Z,60.08
2019-03-01T09:36:17.840Z,60.46
2019-03-01T09:38:45.684Z,60.47
2019-03-01T09:41:13.966Z,62.11
2019-03-01T09:43:42.228Z,62.36
2019-03-01T09:46:10.541Z,61.83
2019-03-01T09:48:38.793Z,61.75
2019-03-01T09:51:10.250Z,63.54
2019-03-01T09:53:37.083Z,62.87
2019-03-01T09:56:05.369Z,62.55
2019-03-01T09:58:33.705Z,64.84
2019-03-01T10:01:11.255Z,64.36
2019-03-01T10:03:39.520Z,62.88
2019-03-01T10:06:07.942Z,62.68
2019-03-01T10:08:36.206Z,62.52
2019-03-01T10:11:04.465Z,62.05
2019-03-01T10:16:01.017Z,64.57
2019-03-01T10:18:29.291Z,63.79
2019-03-01T10:20:57.551Z,63.66
2019-03-01T10:23:25.827Z,63.85
2019-03-01T10:25:54.104Z,63.27
2019-03-01T10:28:22.414Z,62.68
2019-03-01T10:30:50.674Z,63.17
2019-03-01T10:33:18.936Z,63.51
2019-03-01T10:35:47.220Z,63.27
2019-03-01T10:38:15.482Z,63.66
2019-03-01T10:40:43.775Z,63.73
2019-03-01T10:43:12.032Z,65.75
2019-03-01T10:45:40.302Z,63.93
2019-03-01T10:48:08.613Z,63.82
2019-03-01T10:50:36.907Z,62.11
2019-03-01T10:53:05.188Z,62.62
2019-03-01T10:55:33.456Z,62.86
2019-03-01T10:58:01.727Z,63.97
2019-03-01T11:00:31.258Z,63.25
2019-03-01T11:02:59.545Z,65.40
2019-03-01T11:05:27.886Z,63.93
2019-03-01T11:07:56.885Z,62.96
2019-03-01T11:10:33.614Z,63.32
2019-03-01T11:13:01.903Z,63.91
2019-03-01T11:15:30.168Z,65.68
2019-03-01T11:17:58.457Z,64.79
2019-03-01T11:20:27.104Z,63.93
2019-03-01T11:22:55.370Z,63.93
2019-03-01T11:25:24.900Z,64.69
2019-03-01T11:27:53.193Z,64.97
2019-03-01T11:30:35.065Z,65.47
2019-03-01T11:33:03.363Z,63.90
2019-03-01T11:35:31.628Z,63.72
2019-03-01T11:37:59.904Z,63.12
2019-03-01T11:40:31.440Z,63.39
2019-03-01T11:42:59.917Z,63.75
2019-03-01T11:45:28.207Z,63.67
2019-03-01T11:47:57.339Z,64.60
2019-03-01T11:50:25.703Z,64.01
2019-03-01T11:52:54.133Z,63.85
2019-03-01T11:55:22.402Z,63.46
2019-03-01T11:57:51.145Z,62.56
2019-03-01T12:00:26.525Z,62.30
2019-03-01T12:02:54.852Z,62.87
2019-03-01T12:05:23.117Z,62.97
2019-03-01T12:07:51.379Z,62.35
2019-03-01T12:10:31.157Z,62.58
2019-03-01T12:12:59.431Z,63.21
2019-03-01T12:15:27.692Z,63.28
2019-03-01T12:17:55.999Z,62.47
2019-03-01T12:20:26.098Z,63.16
2019-03-01T12:22:54.443Z,63.29
2019-03-01T12:25:22.708Z,63.25
2019-03-01T12:27:51.021Z,62.16
2019-03-01T12:30:21.881Z,63.25
2019-03-01T12:32:50.230Z,63.02
2019-03-01T12:35:18.500Z,63.02
2019-03-01T12:37:46.793Z,63.01
2019-03-01T12:40:24.031Z,63.60
2019-03-01T12:42:52.297Z,63.24
2019-03-01T12:45:20.602Z,63.22
2019-03-01T12:47:48.863Z,63.46
2019-03-01T12:50:17.141Z,64.76
2019-03-01T12:52:45.419Z,66.42
2019-03-01T12:55:18.904Z,65.84
2019-03-01T12:57:47.167Z,65.25
2019-03-01T13:00:18.743Z,66.62
2019-03-01T13:02:47.002Z,66.72
2019-03-01T13:05:15.333Z,66.61
2019-03-01T13:07:43.593Z,65.68
2019-03-01T13:10:14.991Z,65.47
2019-03-01T13:12:43.266Z,65.71
2019-03-01T13:15:13.839Z,65.42
2019-03-01T13:17:42.860Z,65.54
2019-03-01T13:20:18.869Z,65.66
2019-03-01T13:22:47.171Z,66.41
2019-03-01T13:25:15.799Z,66.39
2019-03-01T13:27:44.183Z,66.01
2019-03-01T13:30:23.518Z,65.86
2019-03-01T13:32:51.816Z,66.28
2019-03-01T13:35:22.227Z,66.34
2019-03-01T13:37:52.074Z,67.65
2019-03-01T13:40:24.531Z,70.10
2019-03-01T13:42:52.088Z,69.12
2019-03-01T13:45:23.769Z,68.95
2019-03-01T13:47:52.057Z,68.77
2019-03-01T13:50:21.474Z,68.46
2019-03-01T13:52:50.308Z,69.23
2019-03-01T13:55:22.206Z,69.11
2019-03-01T13:57:49.931Z,68.77
2019-03-01T14:00:19.670Z,68.66
2019-03-01T14:02:48.032Z,68.95
2019-03-01T14:05:17.466Z,70.60
2019-03-01T14:07:45.764Z,71.27
2019-03-01T14:10:19.475Z,70.63
2019-03-01T14:12:47.769Z,71.32
2019-03-01T14:15:17.370Z,70.86
2019-03-01T14:17:45.631Z,71.81
2019-03-01T14:20:19.154Z,70.85
2019-03-01T14:22:49.391Z,71.18
2019-03-01T14:25:15.418Z,71.24
2019-03-01T14:27:43.672Z,70.46
2019-03-01T14:30:20.145Z,69.94
2019-03-01T14:32:48.404Z,69.73
2019-03-01T14:35:16.709Z,69.97
2019-03-01T14:37:45.057Z,70.36
2019-03-01T14:40:19.036Z,70.27
2019-03-01T14:42:47.708Z,70.09
2019-03-01T14:45:21.778Z,70.16
2019-03-01T14:47:50.040Z,71.32
2019-03-01T14:50:20.373Z,70.19
2019-03-01T14:52:48.648Z,69.62
2019-03-01T14:55:23.216Z,70.02
2019-03-01T14:57:54.719Z,70.35
2019-03-01T15:00:28.958Z,70.77
2019-03-01T15:03:16.149Z,70.88
2019-03-01T15:05:42.929Z,70.83
2019-03-01T15:08:11.437Z,70.76
2019-03-01T15:10:39.689Z,70.51
2019-03-01T15:13:07.956Z,70.94
2019-03-01T15:15:36.321Z,71.77
2019-03-01T15:18:04.579Z,71.20
2019-03-01T15:20:32.882Z,71.32
2019-03-01T15:23:01.146Z,69.93
2019-03-01T15:25:29.423Z,70.86
2019-03-01T15:27:57.719Z,70.86
2019-03-01T15:30:25.981Z,70.28
2019-03-01T15:32:54.256Z,70.77
2019-03-01T15:35:22.587Z,71.86
2019-03-01T15:37:50.847Z,71.68
2019-03-01T15:40:20.279Z,71.39
2019-03-01T15:42:51.448Z,72.08
2019-03-01T15:45:18.587Z,73.48
2019-03-01T15:47:46.865Z,72.21
2019-03-01T15:50:15.212Z,72.37
2019-03-01T15:52:49.665Z,72.73
2019-03-01T15:55:16.598Z,72.76
2019-03-01T15:57:44.892Z,72.30
2019-03-01T16:00:19.458Z,71.98
2019-03-01T16:02:50.072Z,72.77
2019-03-01T16:05:17.740Z,73.82
2019-03-01T16:07:46.041Z,73.13
2019-03-01T16:10:16.811Z,74.12
2019-03-01T16:12:45.082Z,73.82
2019-03-01T16:15:16.119Z,74.09
2019-03-01T16:17:44.363Z,73.99
2019-03-01T16:20:17.535Z,73.06
2019-03-01T16:22:45.819Z,72.65
2019-03-01T16:25:20.589Z,72.78
2019-03-01T16:27:50.798Z,74.12
2019-03-01T16:30:20.217Z,74.86
2019-03-01T16:32:50.402Z,73.70
2019-03-01T16:35:19.725Z,72.85
2019-03-01T16:37:49.631Z,73.97
2019-03-01T16:40:19.469Z,74.62
2019-03-01T16:42:52.820Z,73.89
2019-03-01T16:45:21.239Z,73.59
2019-03-01T16:51:07.613Z,73.74
2019-03-01T16:53:36.602Z,77.37
2019-03-01T16:56:05.895Z,75.91
2019-03-01T16:58:34.190Z,75.99
2019-03-01T17:01:04.901Z,77.97
2019-03-01T17:03:32.447Z,77.73
2019-03-01T17:06:00.715Z,77.47
2019-03-01T17:08:29.005Z,74.90
2019-03-01T17:10:57.621Z,74.49
2019-03-01T17:13:27.115Z,74.79
2019-03-01T17:15:55.884Z,75.53
2019-03-01T17:18:24.189Z,75.03
2019-03-01T17:20:53.368Z,73.93
2019-03-01T17:23:21.607Z,73.13
2019-03-01T17:25:49.869Z,74.37
2019-03-01T17:28:23.635Z,75.19
2019-03-01T17:30:50.690Z,73.64
2019-03-01T17:33:18.179Z,73.91
2019-03-01T17:35:46.474Z,74.21
2019-03-01T17:38:14.737Z,74.42
2019-03-01T17:40:43.012Z,74.75
2019-03-01T17:43:11.304Z,74.42
2019-03-01T17:45:39.566Z,76.13
2019-03-01T17:48:07.869Z,76.15
2019-03-01T17:50:41.667Z,76.28
2019-03-01T17:53:09.678Z,77.17
2019-03-01T17:55:41.761Z,78.14
2019-03-01T17:58:10.022Z,77.70
2019-03-01T18:00:42.577Z,79.44
2019-03-01T18:03:10.870Z,77.52
2019-03-01T18:05:40.660Z,77.33
2019-03-01T18:08:09.175Z,76.37
2019-03-01T18:10:39.107Z,75.39
2019-03-01T18:13:07.373Z,78.08
2019-03-01T18:15:35.680Z,77.59
2019-03-01T18:18:03.957Z,77.35
2019-03-01T18:20:34.033Z,75.88
2019-03-01T18:23:03.192Z,75.17
2019-03-01T18:25:31.500Z,73.83
2019-03-01T18:27:59.762Z,73.01
2019-03-01T18:30:33.057Z,72.85
2019-03-01T18:33:01.311Z,73.81
2019-03-01T18:35:29.602Z,73.70
2019-03-01T18:37:57.868Z,74.63
2019-03-01T18:40:26.166Z,75.88
2019-03-01T18:42:54.452Z,76.04
2019-03-01T18:45:23.965Z,74.53
2019-03-01T18:47:52.243Z,75.12
2019-03-01T18:50:36.130Z,77.26
2019-03-01T18:53:04.464Z,77.81
2019-03-01T18:55:33.496Z,79.22
2019-03-01T18:58:01.780Z,78.93
2019-03-01T19:00:36.900Z,81.15
2019-03-01T19:03:06.082Z,82.51
2019-03-01T19:05:36.598Z,82.66
2019-03-01T19:08:05.864Z,82.24
2019-03-01T19:10:34.727Z,80.52
2019-03-01T19:13:03.041Z,77.51
2019-03-01T19:15:31.307Z,76.20
2019-03-01T19:18:01.907Z,75.62
2019-03-01T19:20:37.895Z,75.93
2019-03-01T19:23:06.132Z,80.68
2019-03-01T19:25:34.452Z,81.56
2019-03-01T19:28:02.719Z,82.49
2019-03-01T19:30:30.981Z,80.85
2019-03-01T19:33:02.237Z,80.17
2019-03-01T19:35:30.008Z,78.50
2019-03-01T19:37:58.329Z,77.40
2019-03-01T19:40:26.677Z,75.75
2019-03-01T19:42:54.953Z,75.68
2019-03-01T19:45:23.228Z,77.48
2019-03-01T19:47:51.525Z,76.92
2019-03-01T19:50:28.164Z,79.60
2019-03-01T19:52:58.068Z,80.04
2019-03-01T19:55:27.612Z,80.62
2019-03-01T19:57:56.802Z,81.93
2019-03-01T20:00:29.509Z,79.10
2019-03-01T20:02:58.244Z,79.42
2019-03-01T20:05:33.167Z,80.15
2019-03-01T20:08:01.707Z,79.31
2019-03-01T20:10:29.976Z,79.37
2019-03-01T20:12:58.292Z,80.62
2019-03-01T20:15:27.898Z,80.55
2019-03-01T20:17:56.196Z,82.03
2019-03-01T20:20:25.498Z,80.20
2019-03-01T20:22:55.115Z,78.63
2019-03-01T20:25:23.639Z,81.25
2019-03-01T20:27:51.915Z,81.42
2019-03-01T20:30:30.305Z,82.56
2019-03-01T20:32:57.004Z,82.82
2019-03-01T20:35:26.097Z,82.08
2019-03-01T20:37:54.598Z,81.87
2019-03-01T20:40:26.498Z,82.60
2019-03-01T20:42:55.995Z,82.18
2019-03-01T20:45:34.994Z,81.32
2019-03-01T20:48:03.645Z,81.68
2019-03-01T20:50:31.891Z,80.31
2019-03-01T20:53:00.159Z,79.12
2019-03-01T20:55:28.437Z,80.27
2019-03-01T20:57:59.830Z,81.37
2019-03-01T21:00:29.806Z,82.04
2019-03-01T21:02:57.458Z,80.16
2019-03-01T21:05:28.944Z,80.61
2019-03-01T21:07:55.758Z,81.91
2019-03-01T21:10:29.420Z,81.98
2019-03-01T21:12:57.744Z,83.07
2019-03-01T21:15:26.006Z,83.27
2019-03-01T21:17:57.125Z,84.03
2019-03-01T21:20:24.274Z,82.77
2019-03-01T21:22:52.538Z,82.39
2019-03-01T21:25:22.464Z,83.74
2019-03-01T21:27:50.728Z,82.39
2019-03-01T21:30:24.911Z,80.56
2019-03-01T21:32:53.240Z,80.70
2019-03-01T21:35:21.547Z,79.84
2019-03-01T21:37:49.806Z,81.45
2019-03-01T21:40:18.082Z,82.54
2019-03-01T21:42:46.340Z,82.50
2019-03-01T21:45:17.888Z,82.17
2019-03-01T21:47:48.047Z,81.14
2019-03-01T21:50:16.695Z,81.81
2019-03-01T21:52:44.966Z,82.12
2019-03-01T21:55:18.553Z,81.25
2019-03-01T21:57:46.822Z,80.00
2019-03-01T22:00:29.969Z,80.36
2019-03-01T22:02:57.212Z,79.97
2019-03-01T22:05:25.490Z,79.78
2019-03-01T22:07:53.759Z,78.99
2019-03-01T22:10:22.013Z,78.39
2019-03-01T22:12:51.309Z,78.82
2019-03-01T22:15:25.378Z,78.23
2019-03-01T22:17:52.261Z,77.34
2019-03-01T22:20:23.191Z,76.40
2019-03-01T22:22:51.482Z,77.38
2019-03-01T22:25:19.780Z,78.00
2019-03-01T22:27:48.077Z,77.84
2019-03-01T22:30:33.536Z,77.40
2019-03-01T22:33:01.808Z,76.12
2019-03-01T22:35:30.078Z,77.40
2019-03-01T22:38:00.822Z,77.54
2019-03-01T22:40:29.405Z,76.50
2019-03-01T22:42:57.879Z,75.26
2019-03-01T22:45:26.141Z,75.25
2019-03-01T22:47:54.439Z,74.69
2019-03-01T22:50:22.713Z,74.68
2019-03-01T22:52:51.008Z,74.23
2019-03-01T22:55:19.913Z,72.67
2019-03-01T22:57:48.208Z,71.72
2019-03-01T23:00:30.073Z,73.13
2019-03-01T23:02:57.776Z,75.68
2019-03-01T23:05:26.059Z,74.25
2019-03-01T23:07:56.917Z,72.88
2019-03-01T23:10:24.389Z,72.23
2019-03-01T23:12:52.649Z,73.25
2019-03-01T23:15:20.939Z,73.46
2019-03-01T23:17:49.206Z,72.47
2019-03-01T23:20:17.506Z,73.86
2019-03-01T23:22:46.133Z,75.74
2019-03-01T23:25:15.122Z,76.95
2019-03-01T23:27:43.828Z,78.71
2019-03-01T23:30:12.095Z,79.16
2019-03-01T23:32:40.361Z,79.62
2019-03-01T23:35:08.635Z,79.35
2019-03-01T23:37:38.919Z,79.55
2019-03-01T23:40:07.362Z,78.70
2019-03-01T23:42:35.706Z,78.13
2019-03-01T23:45:05.705Z,78.01
2019-03-01T23:47:34.742Z,78.17
2019-03-01T23:50:04.546Z,78.97
2019-03-01T23:52:32.808Z,78.05
2019-03-01T23:55:01.075Z,76.65
2019-03-01T23:57:29.370Z,76.88
2019-03-01T23:59:58.689Z,77.41
